createdAt,value
2018-12-11T00:00:22.380Z,3.40
2018-12-11T00:02:54.542Z,3.70
2018-12-11T00:05:26.530Z,3.40
2018-12-11T00:07:58.713Z,3.47
2018-12-11T00:10:31.638Z,3.37
2018-12-11T00:13:04.204Z,3.47
2018-12-11T00:15:36.535Z,3.50
2018-12-11T00:18:08.400Z,3.60
2018-12-11T00:20:40.333Z,3.80
2018-12-11T00:23:13.296Z,3.97
2018-12-11T00:25:45.132Z,3.80
2018-12-11T00:28:17.137Z,4.10
2018-12-11T00:30:49.015Z,4.87
2018-12-11T00:33:21.162Z,7.30
2018-12-11T00:35:53.836Z,4.30
2018-12-11T00:38:25.900Z,4.27
2018-12-11T00:40:58.734Z,3.67
2018-12-11T00:43:30.836Z,3.43
2018-12-11T00:46:03.333Z,3.40
2018-12-11T00:48:35.514Z,3.43
2018-12-11T00:51:08.451Z,3.90
2018-12-11T00:53:40.932Z,3.77
2018-12-11T00:56:13.439Z,3.37
2018-12-11T00:58:45.212Z,3.67
2018-12-11T01:01:17.184Z,3.60
2018-12-11T01:03:49.437Z,3.90
2018-12-11T01:06:23.508Z,3.80
2018-12-11T01:08:56.535Z,4.13
2018-12-11T01:11:28.791Z,6.50
2018-12-11T01:14:01.252Z,4.00
2018-12-11T01:16:32.943Z,3.70
2018-12-11T01:19:06.243Z,4.33
2018-12-11T01:21:38.944Z,3.50
2018-12-11T01:24:10.792Z,3.67
2018-12-11T01:26:43.005Z,3.90
2018-12-11T01:29:16.212Z,3.87
2018-12-11T01:31:48.467Z,3.70
2018-12-11T01:34:20.466Z,3.93
2018-12-11T01:36:52.861Z,3.60
2018-12-11T01:39:24.730Z,3.30
2018-12-11T01:41:56.661Z,3.50
2018-12-11T01:44:28.860Z,3.47
2018-12-11T01:47:00.780Z,3.83
2018-12-11T01:49:32.856Z,4.10
2018-12-11T01:52:05.289Z,4.10
2018-12-11T01:54:37.648Z,5.17
2018-12-11T01:57:09.918Z,4.37
2018-12-11T01:59:42.190Z,4.80
2018-12-11T02:02:13.911Z,4.37
2018-12-11T02:04:45.754Z,4.03
2018-12-11T02:07:17.794Z,4.10
2018-12-11T02:09:49.966Z,3.87
2018-12-11T02:12:21.812Z,4.10
2018-12-11T02:14:54.149Z,3.70
2018-12-11T02:17:26.838Z,4.30
2018-12-11T02:19:59.166Z,4.37
2018-12-11T02:22:31.080Z,4.80
2018-12-11T02:25:02.787Z,4.83
2018-12-11T02:27:34.980Z,4.23
2018-12-11T02:30:07.118Z,4.27
2018-12-11T02:32:39.468Z,4.03
2018-12-11T02:35:11.581Z,4.03
2018-12-11T02:37:44.745Z,3.73
2018-12-11T02:40:16.847Z,4.60
2018-12-11T02:42:49.119Z,3.70
2018-12-11T02:45:21.404Z,3.50
2018-12-11T02:47:53.480Z,3.40
2018-12-11T02:50:25.468Z,3.80
2018-12-11T02:52:57.539Z,3.30
2018-12-11T02:55:30.600Z,3.33
2018-12-11T02:58:02.753Z,3.77
2018-12-11T03:00:34.912Z,3.13
2018-12-11T03:03:07.020Z,3.33
2018-12-11T03:05:39.058Z,6.33
2018-12-11T03:08:10.824Z,15.40
2018-12-11T03:10:42.671Z,18.70
2018-12-11T03:13:14.490Z,7.60
2018-12-11T03:15:46.292Z,7.40
2018-12-11T03:18:18.372Z,6.30
2018-12-11T03:20:50.991Z,3.50
2018-12-11T03:23:22.992Z,3.73
2018-12-11T03:25:55.109Z,4.07
2018-12-11T03:28:27.210Z,4.27
2018-12-11T03:30:59.266Z,4.83
2018-12-11T03:33:30.924Z,3.77
2018-12-11T03:36:02.800Z,4.33
2018-12-11T03:38:36.195Z,4.10
2018-12-11T03:41:08.488Z,4.33
2018-12-11T03:43:40.592Z,3.93
2018-12-11T03:46:12.856Z,4.33
2018-12-11T03:48:45.168Z,5.20
2018-12-11T03:51:17.122Z,4.30
2018-12-11T03:53:49.553Z,4.10
2018-12-11T03:56:21.914Z,3.87
2018-12-11T03:58:53.949Z,5.23
2018-12-11T04:01:26.154Z,5.03
2018-12-11T04:03:58.000Z,4.83
2018-12-11T04:06:30.000Z,4.13
2018-12-11T04:09:01.890Z,4.33
2018-12-11T04:11:33.820Z,4.43
2018-12-11T04:14:06.267Z,3.90
2018-12-11T04:16:38.358Z,3.77
2018-12-11T04:19:10.477Z,4.93
2018-12-11T04:21:43.602Z,4.20
2018-12-11T04:24:15.792Z,4.43
2018-12-11T04:26:48.272Z,4.37
2018-12-11T04:29:20.304Z,6.37
2018-12-11T04:31:52.456Z,6.17
2018-12-11T04:34:24.990Z,14.03
2018-12-11T04:36:57.054Z,9.30
2018-12-11T04:39:33.767Z,5.93
2018-12-11T04:42:04.069Z,5.47
2018-12-11T04:44:36.201Z,4.70
2018-12-11T04:47:08.384Z,4.67
2018-12-11T04:49:40.829Z,5.47
2018-12-11T04:52:14.231Z,6.40
2018-12-11T04:54:47.039Z,4.47
2018-12-11T04:57:18.999Z,4.27
2018-12-11T04:59:51.639Z,4.00
2018-12-11T05:02:24.279Z,4.00
2018-12-11T05:04:55.979Z,4.43
2018-12-11T05:07:28.014Z,4.70
2018-12-11T05:10:00.136Z,4.87
2018-12-11T05:12:32.705Z,4.53
2018-12-11T05:15:04.450Z,4.60
2018-12-11T05:17:35.874Z,4.40
2018-12-11T05:20:07.795Z,4.90
2018-12-11T05:22:39.249Z,6.30
2018-12-11T05:25:11.792Z,5.40
2018-12-11T05:27:45.082Z,5.07
2018-12-11T05:30:16.984Z,5.87
2018-12-11T05:32:48.961Z,5.00
2018-12-11T05:35:20.717Z,5.30
2018-12-11T05:37:52.994Z,4.90
2018-12-11T05:40:25.229Z,4.67
2018-12-11T05:42:57.317Z,6.33
2018-12-11T05:45:29.525Z,6.13
2018-12-11T05:48:01.738Z,7.30
2018-12-11T05:50:34.721Z,5.27
2018-12-11T05:53:06.694Z,5.93
2018-12-11T05:55:39.018Z,5.30
2018-12-11T05:58:11.211Z,4.33
2018-12-11T06:00:43.031Z,3.93
2018-12-11T06:03:14.563Z,4.67
2018-12-11T06:05:46.634Z,4.50
2018-12-11T06:08:19.542Z,4.13
2018-12-11T06:10:51.867Z,4.83
2018-12-11T06:13:23.771Z,5.10
2018-12-11T06:15:55.614Z,4.97
2018-12-11T06:18:28.165Z,5.53
2018-12-11T06:21:00.070Z,7.40
2018-12-11T06:23:32.582Z,8.10
2018-12-11T06:26:05.398Z,6.73
2018-12-11T06:28:37.526Z,8.47
2018-12-11T06:31:10.231Z,16.30
2018-12-11T06:33:42.222Z,16.47
2018-12-11T06:36:14.334Z,15.83
2018-12-11T06:38:47.175Z,11.90
2018-12-11T06:41:19.120Z,8.73
2018-12-11T06:43:51.064Z,9.17
2018-12-11T06:46:23.190Z,7.20
2018-12-11T06:48:54.984Z,6.07
2018-12-11T06:51:27.124Z,5.50
2018-12-11T06:53:59.127Z,5.90
2018-12-11T06:56:31.347Z,5.30
2018-12-11T06:59:03.321Z,5.93
2018-12-11T07:01:35.407Z,7.33
2018-12-11T07:04:07.540Z,6.20
2018-12-11T07:06:39.706Z,5.30
2018-12-11T07:09:12.112Z,5.80
2018-12-11T07:11:44.433Z,5.10
2018-12-11T07:14:16.836Z,5.77
2018-12-11T07:16:49.073Z,5.17
2018-12-11T07:19:21.184Z,6.13
2018-12-11T07:21:53.363Z,6.60
2018-12-11T07:24:26.082Z,5.60
2018-12-11T07:26:58.263Z,5.40
2018-12-11T07:29:30.608Z,5.93
2018-12-11T07:32:03.450Z,5.13
2018-12-11T07:34:35.657Z,4.60
2018-12-11T07:37:08.419Z,4.83
2018-12-11T07:39:40.910Z,5.23
2018-12-11T07:42:13.550Z,4.33
2018-12-11T07:44:46.055Z,4.10
2018-12-11T07:47:18.351Z,4.20
2018-12-11T07:49:51.621Z,4.10
2018-12-11T07:52:23.801Z,5.27
2018-12-11T07:54:55.715Z,4.40
2018-12-11T07:57:28.694Z,3.77
2018-12-11T08:00:01.543Z,4.20
2018-12-11T08:02:34.623Z,4.03
2018-12-11T08:05:07.587Z,3.30
2018-12-11T08:07:39.501Z,4.77
2018-12-11T08:10:11.653Z,5.23
2018-12-11T08:12:43.846Z,3.50
2018-12-11T08:15:15.820Z,2.87
2018-12-11T08:17:48.280Z,2.80
2018-12-11T08:20:20.195Z,2.83
2018-12-11T08:22:52.792Z,4.37
2018-12-11T08:25:25.166Z,5.37
2018-12-11T08:27:57.616Z,4.70
2018-12-11T08:30:29.744Z,3.53
2018-12-11T08:33:01.720Z,6.90
2018-12-11T08:35:34.430Z,4.50
2018-12-11T08:38:06.757Z,3.83
2018-12-11T08:40:39.041Z,6.90
2018-12-11T08:43:11.542Z,4.00
2018-12-11T08:45:43.682Z,3.83
2018-12-11T08:48:16.051Z,2.50
2018-12-11T08:50:49.017Z,4.13
2018-12-11T08:53:20.842Z,3.00
2018-12-11T08:55:53.027Z,2.10
2018-12-11T08:58:25.145Z,2.17
2018-12-11T09:00:57.629Z,2.10
2018-12-11T09:03:30.688Z,3.27
2018-12-11T09:06:02.676Z,5.83
2018-12-11T09:08:34.858Z,2.70
2018-12-11T09:11:07.254Z,2.30
2018-12-11T09:13:39.826Z,2.03
2018-12-11T09:16:12.535Z,2.13
2018-12-11T09:18:44.462Z,3.00
2018-12-11T09:21:16.479Z,1.93
2018-12-11T09:23:48.385Z,3.40
2018-12-11T09:26:20.262Z,2.00
2018-12-11T09:28:52.203Z,1.70
2018-12-11T09:31:24.619Z,1.90
2018-12-11T09:33:56.372Z,4.10
2018-12-11T09:36:28.741Z,3.67
2018-12-11T09:39:00.622Z,4.17
2018-12-11T09:41:37.502Z,3.43
2018-12-11T09:44:09.408Z,3.27
2018-12-11T09:46:42.399Z,7.30
2018-12-11T09:49:14.782Z,8.47
2018-12-11T09:51:51.795Z,9.43
2018-12-11T09:54:23.875Z,10.47
2018-12-11T09:56:55.815Z,13.10
2018-12-11T09:59:29.034Z,18.47
2018-12-11T10:02:01.048Z,7.40
2018-12-11T10:04:33.921Z,5.00
2018-12-11T10:07:07.334Z,5.00
2018-12-11T10:09:39.655Z,5.47
2018-12-11T10:12:11.722Z,4.00
2018-12-11T10:14:43.690Z,3.77
2018-12-11T10:17:15.715Z,2.87
2018-12-11T10:19:47.853Z,3.90
2018-12-11T10:22:20.292Z,2.43
2018-12-11T10:24:52.209Z,2.67
2018-12-11T10:27:24.551Z,3.20
2018-12-11T10:29:56.753Z,1.97
2018-12-11T10:32:29.532Z,1.90
2018-12-11T10:35:01.600Z,2.30
2018-12-11T10:37:33.794Z,2.10
2018-12-11T10:40:06.257Z,4.20
2018-12-11T10:42:38.157Z,3.53
2018-12-11T10:45:10.215Z,2.47
2018-12-11T10:47:42.731Z,2.53
2018-12-11T10:50:14.665Z,2.30
2018-12-11T10:52:46.963Z,2.27
2018-12-11T10:55:19.402Z,2.80
2018-12-11T10:57:51.361Z,2.23
2018-12-11T11:00:28.572Z,2.80
2018-12-11T11:03:06.105Z,2.67
2018-12-11T11:05:38.617Z,2.30
2018-12-11T11:08:10.684Z,4.07
2018-12-11T11:10:42.930Z,6.70
2018-12-11T11:13:15.112Z,5.60
2018-12-11T11:15:48.036Z,3.33
2018-12-11T11:18:20.228Z,4.53
2018-12-11T11:20:53.093Z,5.67
2018-12-11T11:23:25.681Z,3.97
2018-12-11T11:25:57.578Z,4.57
2018-12-11T11:28:29.546Z,2.70
2018-12-11T11:31:02.201Z,3.13
2018-12-11T11:33:35.086Z,4.67
2018-12-11T11:36:07.463Z,4.03
2018-12-11T11:38:39.637Z,3.43
2018-12-11T11:41:11.730Z,2.43
2018-12-11T11:43:44.003Z,2.10
2018-12-11T11:46:16.152Z,2.03
2018-12-11T11:48:48.674Z,2.13
2018-12-11T11:51:20.745Z,2.90
2018-12-11T11:53:52.934Z,2.13
2018-12-11T11:56:24.999Z,2.10
2018-12-11T11:58:57.027Z,3.60
2018-12-11T12:01:29.785Z,3.00
2018-12-11T12:04:02.408Z,7.10
2018-12-11T12:06:34.927Z,8.50
2018-12-11T12:09:08.708Z,7.27
2018-12-11T12:11:40.604Z,10.93
2018-12-11T12:14:12.879Z,10.50
2018-12-11T12:16:44.923Z,12.03
2018-12-11T12:19:16.803Z,9.73
2018-12-11T12:21:48.971Z,8.77
2018-12-11T12:24:21.027Z,8.23
2018-12-11T12:26:52.974Z,10.97
2018-12-11T12:29:24.892Z,8.43
2018-12-11T12:31:57.243Z,6.40
2018-12-11T12:34:29.408Z,5.00
2018-12-11T12:37:01.890Z,7.63
2018-12-11T12:39:34.550Z,5.37
2018-12-11T12:42:06.998Z,5.97
2018-12-11T12:44:39.330Z,7.17
2018-12-11T12:47:11.328Z,8.07
2018-12-11T12:49:43.449Z,6.50
2018-12-11T12:52:15.549Z,3.30
2018-12-11T12:54:49.264Z,3.10
2018-12-11T12:57:21.489Z,4.30
2018-12-11T12:59:54.841Z,2.70
2018-12-11T13:02:26.828Z,3.30
2018-12-11T13:04:59.195Z,3.30
2018-12-11T13:07:31.418Z,5.40
2018-12-11T13:10:03.168Z,8.43
2018-12-11T13:12:35.580Z,5.67
2018-12-11T13:15:08.482Z,4.10
2018-12-11T13:17:40.456Z,6.83
2018-12-11T13:20:12.515Z,4.33
2018-12-11T13:22:44.390Z,4.30
2018-12-11T13:25:16.474Z,4.27
2018-12-11T13:27:48.887Z,6.73
2018-12-11T13:30:21.756Z,3.80
2018-12-11T13:32:53.967Z,5.47
2018-12-11T13:35:26.804Z,5.27
2018-12-11T13:37:58.827Z,6.00
2018-12-11T13:40:31.252Z,7.67
2018-12-11T13:43:03.553Z,3.47
2018-12-11T13:45:35.320Z,3.93
2018-12-11T13:48:07.509Z,3.60
2018-12-11T13:50:39.960Z,4.60
2018-12-11T13:53:11.927Z,3.07
2018-12-11T13:55:45.290Z,2.93
2018-12-11T13:58:18.118Z,3.27
2018-12-11T14:00:50.428Z,3.50
2018-12-11T14:03:23.510Z,3.70
2018-12-11T14:05:55.771Z,5.23
2018-12-11T14:08:28.055Z,3.40
2018-12-11T14:10:59.997Z,2.90
2018-12-11T14:13:32.342Z,4.47
2018-12-11T14:16:04.504Z,4.37
2018-12-11T14:18:37.611Z,4.30
2018-12-11T14:21:09.840Z,5.40
2018-12-11T14:23:42.090Z,6.13
2018-12-11T14:26:14.292Z,5.63
2018-12-11T14:28:46.550Z,5.47
2018-12-11T14:31:18.927Z,3.80
2018-12-11T14:33:50.916Z,3.87
2018-12-11T14:36:22.950Z,4.10
2018-12-11T14:38:55.145Z,3.50
2018-12-11T14:41:27.405Z,3.60
2018-12-11T14:43:59.402Z,3.20
2018-12-11T14:46:31.963Z,4.07
2018-12-11T14:49:03.982Z,4.50
2018-12-11T14:51:37.276Z,3.40
2018-12-11T14:54:11.150Z,3.80
2018-12-11T14:56:44.119Z,5.03
2018-12-11T14:59:17.465Z,5.37
2018-12-11T15:01:49.649Z,7.00
2018-12-11T15:04:22.127Z,9.37
2018-12-11T15:06:54.431Z,9.63
2018-12-11T15:09:31.922Z,16.20
2018-12-11T15:12:04.263Z,8.33
2018-12-11T15:14:36.595Z,11.10
2018-12-11T15:17:08.996Z,10.70
2018-12-11T15:19:41.506Z,11.73
2018-12-11T15:22:13.890Z,14.37
2018-12-11T15:24:46.309Z,13.20
2018-12-11T15:27:18.818Z,14.13
2018-12-11T15:29:50.684Z,17.20
2018-12-11T15:32:23.207Z,8.60
2018-12-11T15:34:56.181Z,6.97
2018-12-11T15:37:28.168Z,7.73
2018-12-11T15:40:00.818Z,7.27
2018-12-11T15:42:32.343Z,10.80
2018-12-11T15:45:04.834Z,7.37
2018-12-11T15:47:36.893Z,5.90
2018-12-11T15:50:09.913Z,8.70
2018-12-11T15:52:42.820Z,8.60
2018-12-11T15:55:15.081Z,10.17
2018-12-11T15:57:47.292Z,6.40
2018-12-11T16:00:20.871Z,7.30
2018-12-11T16:02:53.402Z,8.77
2018-12-11T16:05:26.175Z,9.67
2018-12-11T16:07:58.458Z,5.03
2018-12-11T16:10:30.521Z,10.47
2018-12-11T16:13:02.495Z,9.03
2018-12-11T16:15:34.815Z,9.33
2018-12-11T16:18:07.055Z,11.73
2018-12-11T16:20:39.511Z,10.43
2018-12-11T16:23:12.572Z,6.37
2018-12-11T16:25:45.540Z,8.00
2018-12-11T16:28:18.467Z,12.20
2018-12-11T16:30:51.373Z,9.83
2018-12-11T16:33:23.676Z,5.17
2018-12-11T16:35:55.831Z,7.07
2018-12-11T16:38:28.229Z,11.67
2018-12-11T16:41:00.179Z,9.70
2018-12-11T16:43:32.360Z,9.57
2018-12-11T16:46:05.079Z,6.20
2018-12-11T16:48:37.404Z,8.20
2018-12-11T16:51:09.774Z,8.37
2018-12-11T16:53:42.800Z,9.47
2018-12-11T16:56:14.987Z,10.20
2018-12-11T16:58:47.266Z,9.63
2018-12-11T17:01:19.540Z,9.20
2018-12-11T17:03:51.984Z,8.83
2018-12-11T17:06:24.337Z,7.87
2018-12-11T17:08:56.626Z,10.63
2018-12-11T17:11:28.723Z,9.87
2018-12-11T17:14:01.122Z,10.07
2018-12-11T17:16:33.219Z,8.47
2018-12-11T17:19:05.822Z,9.07
2018-12-11T17:21:38.378Z,7.53
2018-12-11T17:24:11.808Z,7.07
2018-12-11T17:26:44.423Z,10.13
2018-12-11T17:29:16.447Z,9.10
2018-12-11T17:31:49.350Z,11.03
2018-12-11T17:34:21.842Z,7.70
2018-12-11T17:36:54.279Z,7.23
2018-12-11T17:39:27.487Z,7.20
2018-12-11T17:42:00.602Z,6.93
2018-12-11T17:44:33.390Z,7.53
2018-12-11T17:47:05.928Z,7.80
2018-12-11T17:49:37.745Z,6.80
2018-12-11T17:52:09.962Z,7.27
2018-12-11T17:54:43.132Z,6.83
2018-12-11T17:57:15.720Z,6.40
2018-12-11T17:59:48.895Z,6.93
2018-12-11T18:02:27.314Z,7.00
2018-12-11T18:05:00.505Z,6.97
2018-12-11T18:07:32.954Z,10.53
2018-12-11T18:10:07.444Z,7.70
2018-12-11T18:12:39.661Z,7.87
2018-12-11T18:15:15.364Z,9.30
2018-12-11T18:17:48.019Z,11.80
2018-12-11T18:20:20.330Z,9.77
2018-12-11T18:22:53.821Z,5.67
2018-12-11T18:25:26.417Z,4.90
2018-12-11T18:27:59.032Z,4.87
2018-12-11T18:30:31.684Z,5.43
2018-12-11T18:33:03.562Z,5.80
2018-12-11T18:35:35.856Z,7.53
2018-12-11T18:38:08.358Z,7.37
2018-12-11T18:40:40.870Z,11.73
2018-12-11T18:43:14.315Z,13.60
2018-12-11T18:45:46.653Z,9.97
2018-12-11T18:48:18.663Z,8.70
2018-12-11T18:50:50.731Z,10.20
2018-12-11T18:53:23.470Z,10.07
2018-12-11T18:55:55.910Z,11.97
2018-12-11T18:58:34.106Z,9.37
2018-12-11T19:01:03.270Z,7.83
2018-12-11T19:03:37.842Z,7.30
2018-12-11T19:06:11.477Z,5.83
2018-12-11T19:08:44.308Z,5.63
2018-12-11T19:11:16.842Z,4.67
2018-12-11T19:13:51.277Z,3.10
2018-12-11T19:16:24.895Z,5.53
2018-12-11T19:18:56.781Z,4.87
2018-12-11T19:21:29.176Z,5.20
2018-12-11T19:24:29.057Z,4.93
2018-12-11T19:27:01.358Z,4.27
2018-12-11T19:29:34.197Z,5.17
2018-12-11T19:32:06.816Z,5.73
2018-12-11T19:34:38.621Z,5.97
2018-12-11T19:37:11.066Z,6.00
2018-12-11T19:39:43.540Z,7.30
2018-12-11T19:42:15.771Z,10.33
2018-12-11T19:44:48.605Z,7.33
2018-12-11T19:47:20.811Z,7.07
2018-12-11T19:49:52.463Z,8.23
2018-12-11T19:52:25.015Z,6.13
2018-12-11T19:54:57.609Z,8.17
2018-12-11T19:57:30.349Z,9.07
2018-12-11T20:00:03.030Z,10.97
2018-12-11T20:02:35.434Z,10.63
2018-12-11T20:05:09.516Z,10.50
2018-12-11T20:07:42.987Z,10.37
2018-12-11T20:10:18.532Z,6.93
2018-12-11T20:12:51.069Z,9.70
2018-12-11T20:15:23.471Z,15.47
2018-12-11T20:17:58.543Z,11.50
2018-12-11T20:20:31.877Z,10.40
2018-12-11T20:23:04.410Z,8.33
2018-12-11T20:25:37.931Z,11.13
2018-12-11T20:28:10.912Z,8.53
2018-12-11T20:30:44.336Z,7.50
2018-12-11T20:33:17.825Z,8.57
2018-12-11T20:35:50.602Z,9.67
2018-12-11T20:38:23.955Z,9.73
2018-12-11T20:40:57.732Z,10.27
2018-12-11T20:43:30.491Z,9.17
2018-12-11T20:46:05.115Z,8.17
2018-12-11T20:48:37.714Z,8.40
2018-12-11T20:51:10.239Z,10.00
2018-12-11T20:53:42.853Z,9.57
2018-12-11T20:56:15.215Z,9.17
2018-12-11T20:58:48.111Z,8.13
2018-12-11T21:01:20.297Z,6.80
2018-12-11T21:03:52.656Z,7.50
2018-12-11T21:06:25.289Z,7.77
2018-12-11T21:08:57.765Z,10.10
2018-12-11T21:11:30.739Z,10.37
2018-12-11T21:14:03.691Z,9.63
2018-12-11T21:16:36.386Z,9.27
2018-12-11T21:19:08.834Z,8.53
2018-12-11T21:21:41.740Z,7.00
2018-12-11T21:24:13.958Z,9.27
2018-12-11T21:26:47.252Z,8.57
2018-12-11T21:29:20.310Z,7.77
2018-12-11T21:31:52.975Z,7.57
2018-12-11T21:34:25.230Z,8.43
2018-12-11T21:36:57.572Z,5.90
2018-12-11T21:39:30.177Z,6.90
2018-12-11T21:42:03.222Z,8.60
2018-12-11T21:44:36.299Z,7.00
2018-12-11T21:47:08.946Z,7.50
2018-12-11T21:49:41.246Z,6.47
2018-12-11T21:52:13.024Z,5.03
2018-12-11T21:54:45.940Z,4.83
2018-12-11T21:57:18.213Z,5.13
2018-12-11T21:59:50.689Z,5.77
2018-12-11T22:02:22.597Z,5.67
2018-12-11T22:04:55.288Z,5.43
2018-12-11T22:07:27.390Z,4.90
2018-12-11T22:09:59.373Z,4.57
2018-12-11T22:12:31.818Z,5.33
2018-12-11T22:15:04.217Z,4.87
2018-12-11T22:17:36.525Z,4.60
2018-12-11T22:20:09.729Z,4.53
2018-12-11T22:22:41.736Z,4.73
2018-12-11T22:25:14.120Z,5.00
2018-12-11T22:27:46.104Z,4.63
2018-12-11T22:30:18.292Z,5.13
2018-12-11T22:32:50.372Z,5.07
2018-12-11T22:35:23.498Z,5.53
2018-12-11T22:37:55.542Z,5.23
2018-12-11T22:40:27.267Z,4.63
2018-12-11T22:42:59.307Z,4.63
2018-12-11T22:45:31.379Z,4.00
2018-12-11T22:48:04.473Z,4.37
2018-12-11T22:50:36.299Z,4.27
2018-12-11T22:53:08.745Z,3.70
2018-12-11T22:55:40.799Z,4.10
2018-12-11T22:58:12.871Z,4.87
2018-12-11T23:00:48.474Z,5.20
2018-12-11T23:03:21.973Z,5.60
2018-12-11T23:05:54.064Z,5.97
2018-12-11T23:08:26.457Z,5.67
2018-12-11T23:10:58.687Z,6.20
2018-12-11T23:13:31.398Z,5.00
2018-12-11T23:16:03.573Z,5.20
2018-12-11T23:18:36.143Z,5.33
2018-12-11T23:21:08.143Z,5.17
2018-12-11T23:23:40.258Z,7.10
2018-12-11T23:26:12.218Z,10.43
2018-12-11T23:28:44.553Z,5.90
2018-12-11T23:31:16.157Z,5.70
2018-12-11T23:33:48.179Z,5.67
2018-12-11T23:36:20.251Z,5.13
2018-12-11T23:38:52.403Z,4.90
2018-12-11T23:41:24.604Z,4.23
2018-12-11T23:43:56.722Z,4.57
2018-12-11T23:46:28.494Z,4.80
2018-12-11T23:49:00.170Z,4.87
2018-12-11T23:51:31.914Z,6.07
2018-12-11T23:54:03.796Z,4.90
2018-12-11T23:56:36.371Z,6.60
2018-12-11T23:59:08.512Z,7.10
